Flight Track Log - Related Links

Times and Time Zones

All times are in EDT time to prevent confusion due to time zone crossing. See the DAL55 flight status page for this flight to view local times or setup timezone preferences in your user account.

Time Position Orientation Groundspeed Altitude Reporting Facility
EDT Latitude Longitude Course Direction KTS MPH feet Rate Location/Type
Sun 07:53:07 AM 33.6500 -84.3833 64° Northeast 180 207 2,200  Level Atlanta TRACON
Sun 07:54:08 AM 33.6833 -84.3000 12° North 261 300 4,100 2,579 Climbing Atlanta TRACON
Sun 07:55:08 AM 33.7500 -84.2833 291° West 278 320 7,400 2,310 Climbing Atlanta TRACON
Sun 07:57:28 AM 33.8103 -84.4739 266° West 284 327 11,800 1,920 Climbing Atlanta Center
Sun 07:58:28 AM 33.8033 -84.5889 234° Southwest 342 394 13,800 2,100 Climbing Atlanta Center
Sun 07:59:28 AM 33.7403 -84.6933 238° Southwest 357 411 16,000 2,000 Climbing Atlanta Center
Sun 08:00:28 AM 33.6769 -84.8153 238° Southwest 379 436 17,800 2,200 Climbing Atlanta Center
Sun 08:01:28 AM 33.6156 -84.9344 246° West 433 498 20,400 2,250 Climbing Atlanta Center
Sun 08:02:28 AM 33.5667 -85.0683 248° West 438 504 22,300 1,850 Climbing Atlanta Center
Sun 08:03:28 AM 33.5194 -85.2050 258° West 443 510 24,100 2,100 Climbing Atlanta Center
Sun 08:04:28 AM 33.4908 -85.3639 258° West 449 517 26,500 2,200 Climbing Atlanta Center
Sun 08:05:28 AM 33.4661 -85.5031 261° West 437 503 28,500 1,750 Climbing Atlanta Center
Sun 08:06:28 AM 33.4478 -85.6447 259° West 437 503 30,000 1,450 Climbing Atlanta Center
Sun 08:07:28 AM 33.4250 -85.7836 260° West 431 496 31,400 1,300 Climbing Atlanta Center
Sun 08:08:28 AM 33.4067 -85.9028 259° West 425 489 32,600 1,000 Climbing Atlanta Center
Sun 08:09:28 AM 33.3856 -86.0367 259° West 425 489 33,400 700 Climbing Atlanta Center
Sun 08:10:28 AM 33.3625 -86.1728 258° West 416 479 34,000 300 Climbing Atlanta Center
Sun 08:11:28 AM 33.3392 -86.3089 258° West 416 479 34,000  Level Atlanta Center
Sun 08:12:28 AM 33.3133 -86.4575 261° West 424 488 34,000  Level Atlanta Center
Sun 08:13:28 AM 33.2939 -86.5986 258° West 424 488 34,000  Level Atlanta Center
Sun 08:14:28 AM 33.2703 -86.7294 258° West 424 488 34,000  Level Atlanta Center
Sun 08:15:28 AM 33.2461 -86.8681 252° West 424 488 34,000  Level Atlanta Center
Sun 08:16:28 AM 33.2097 -87.0008 240° Southwest 430 495 34,000  Level Atlanta Center
Sun 08:17:28 AM 33.1592 -87.1033 241° Southwest 422 486 34,000  Level Atlanta Center
Sun 08:18:28 AM 33.0950 -87.2425 243° Southwest 422 486 34,000  Level Atlanta Center
Sun 08:19:28 AM 33.0417 -87.3667 242° Southwest 422 486 34,000  Level Atlanta Center
Sun 08:20:28 AM 32.9839 -87.4958 241° Southwest 434 499 34,000  Level Atlanta Center
Sun 08:21:48 AM 32.9136 -87.6475 241° Southwest 417 480 34,000  Level Memphis Center
Sun 08:22:48 AM 32.8558 -87.7731 242° Southwest 424 488 34,000  Level Memphis Center
Sun 08:23:48 AM 32.7939 -87.9108 243° Southwest 430 495 34,000  Level Memphis Center
Sun 08:24:48 AM 32.7400 -88.0356 249° West 430 495 34,000  Level Memphis Center
Sun 08:25:48 AM 32.6986 -88.1650 250° West 430 495 34,000  Level Memphis Center
Sun 08:26:48 AM 32.6608 -88.2869 249° West 435 501 34,000  Level Memphis Center
Sun 08:27:48 AM 32.6192 -88.4161 249° West 435 501 34,000  Level Memphis Center
Sun 08:28:48 AM 32.5772 -88.5478 248° West 435 501 34,000  Level Memphis Center
Sun 08:29:48 AM 32.5331 -88.6767 250° West 435 501 34,000  Level Memphis Center
Sun 08:30:48 AM 32.4931 -88.8056 249° West 430 495 34,000  Level Memphis Center
Sun 08:31:48 AM 32.4508 -88.9369 248° West 430 495 34,000  Level Memphis Center
Sun 08:32:48 AM 32.4083 -89.0631 250° West 430 495 34,000  Level Memphis Center
Sun 08:33:48 AM 32.3678 -89.1914 250° West 430 495 34,000  Level Memphis Center
Sun 08:34:48 AM 32.3272 -89.3200 249° West 430 495 34,000  Level Memphis Center
Sun 08:35:48 AM 32.2864 -89.4481 248° West 425 489 34,000  Level Memphis Center
Sun 08:36:48 AM 32.2436 -89.5761 250° West 425 489 34,000  Level Memphis Center
Sun 08:37:48 AM 32.2025 -89.7067 249° West 425 489 34,000  Level Memphis Center
Sun 08:38:48 AM 32.1614 -89.8347 249° West 425 489 34,000  Level Memphis Center
Sun 08:39:48 AM 32.1200 -89.9625 248° West 425 489 34,000  Level Memphis Center
Sun 08:40:48 AM 32.0767 -90.0900 249° West 425 489 34,000  Level Memphis Center
Sun 08:41:48 AM 32.0350 -90.2200 249° West 425 489 34,000  Level Memphis Center
Sun 08:42:48 AM 31.9933 -90.3450 250° West 425 489 34,000  Level Memphis Center
Sun 08:43:48 AM 31.9517 -90.4772 248° West 425 489 34,000 -33 Level Memphis Center
Sun 08:45:50 AM 31.8642 -90.7300 248° West 417 480 33,900  Descending Houston Center
Sun 08:46:49 AM 31.8211 -90.8550 249° West 417 480 34,000 50 Climbing Houston Center
Sun 08:47:49 AM 31.7781 -90.9847 248° West 417 480 34,000  Level Houston Center
Sun 08:48:49 AM 31.7369 -91.1072 248° West 417 480 34,000  Level Houston Center
Sun 08:49:49 AM 31.6936 -91.2342 248° West 417 480 34,000  Level Houston Center
Sun 08:50:49 AM 31.6503 -91.3611 248° West 417 480 34,000  Level Houston Center
Sun 08:51:49 AM 31.6067 -91.4856 247° West 417 480 34,000  Level Houston Center
Sun 08:52:49 AM 31.5608 -91.6100 241° Southwest 417 480 34,000  Level Houston Center
Sun 08:53:49 AM 31.5044 -91.7292 240° Southwest 417 480 34,000  Level Houston Center
Sun 08:54:49 AM 31.4481 -91.8436 242° Southwest 417 480 34,000  Level Houston Center
Sun 08:55:49 AM 31.3936 -91.9625 241° Southwest 417 480 34,000  Level Houston Center
Sun 08:56:49 AM 31.3369 -92.0839 241° Southwest 417 480 34,000  Level Houston Center
Sun 08:57:49 AM 31.2803 -92.2028 241° Southwest 417 480 34,000  Level Houston Center
Sun 08:58:49 AM 31.2233 -92.3214 240° Southwest 417 480 34,000  Level Houston Center
Sun 08:59:49 AM 31.1664 -92.4375 241° Southwest 412 474 34,000 -50 Level Houston Center
Sun 09:00:49 AM 31.1094 -92.5558 241° Southwest 417 480 33,900  Descending Houston Center
Sun 09:01:49 AM 31.0542 -92.6717 238° Southwest 417 480 34,000 50 Climbing Houston Center
Sun 09:02:49 AM 30.9844 -92.8017 240° Southwest 425 489 34,000  Level Houston Center
Sun 09:03:49 AM 30.9292 -92.9150 241° Southwest 425 489 34,000  Level Houston Center
Sun 09:04:49 AM 30.8800 -93.0183 242° Southwest 413 475 34,000  Level Houston Center
Sun 09:05:49 AM 30.8267 -93.1336 238° Southwest 408 470 34,000  Level Houston Center
Sun 09:06:49 AM 30.7669 -93.2464 241° Southwest 408 470 34,000 -250 Level Houston Center
Sun 09:07:49 AM 30.7114 -93.3614 241° Southwest 408 470 33,500 -1,100 Descending Houston Center
Sun 09:08:49 AM 30.6578 -93.4739 240° Southwest 413 475 31,800 -1,950 Descending Houston Center
Sun 09:09:49 AM 30.6019 -93.5864 239° Southwest 413 475 29,600 -3,050 Descending Houston Center
Sun 09:10:49 AM 30.5331 -93.7175 239° Southwest 423 487 25,700 -3,300 Descending Houston Center
Sun 09:11:49 AM 30.4731 -93.8319 239° Southwest 423 487 23,000 -2,600 Descending Houston Center
Sun 09:12:49 AM 30.4147 -93.9439 240° Southwest 423 487 20,500 -2,450 Descending Houston Center
Sun 09:13:49 AM 30.3608 -94.0511 239° Southwest 417 480 18,100 -2,400 Descending Houston Center
Sun 09:14:49 AM 30.3067 -94.1556 240° Southwest 395 455 15,700 -2,387 Descending Houston Center
Sun 09:15:22 AM 30.2806 -94.2078 239° Southwest 374 430 14,400 -2,234 Descending Houston Center
Sun 09:16:23 AM 30.2264 -94.3122 248° West 366 421 12,200 -1,190 Descending Houston Center
Sun 09:17:23 AM 30.1867 -94.4267 257° West 367 422 12,000 -99 Descending Houston Center
Sun 09:18:24 AM 30.1656 -94.5364 260° West 367 422 12,000 -443 Level Houston Center
Sun 09:19:25 AM 30.1461 -94.6608 259° West 366 421 11,100 -844 Descending Houston Center
Sun 09:20:32 AM 30.1267 -94.7803 258° West 341 392 10,200 -667 Descending Houston Center
Sun 09:21:49 AM 30.1075 -94.8878 267° West 330 380 9,500 -920 Descending Houston Center
Sun 09:22:49 AM 30.1033 -94.9764 272° West 296 341 8,100 -1,554 Descending Houston Center
Sun 09:23:41 AM 30.1053 -95.0628 272° West 279 321 6,600 -1,132 Descending Houston Center
Sun 09:24:35 AM 30.1075 -95.1469 268° West 283 326 6,100 -248 Descending Houston Center
Sun 09:25:42 AM 30.1047 -95.2453 270° West 286 329 6,100 -49 Level Houston Center
Sun 09:26:37 AM 30.1047 -95.3269 271° West 282 325 6,000 -393 Descending Houston Center
Sun 09:27:44 AM 30.1061 -95.4303 268° West 277 319 5,300 -1,000 Descending Houston Center
Sun 09:28:49 AM 30.1033 -95.5236 252° West 289 333 3,800 -1,152 Descending Houston Center
Sun 09:29:49 AM 30.0825 -95.5972 187° South 256 295 2,900 -390 Descending Houston Center
Sun 09:30:52 AM 30.0156 -95.6067 102° East 220 253 3,000 97 Climbing Houston Center
Sun 09:31:53 AM 30.0047 -95.5464 90° East 217 250 3,100 -362 Climbing Houston Center
Sun 09:32:48 AM 30.0044 -95.4839 90° East 201 231 2,300 -873 Descending Houston Center

Login

Don't have an account? Register now (free) for customized features, flight alerts, and more!